Caerphilly, United Kingdom
Current Conditions -  °F | °C
As of 4:50 PM on Thursday 23 Oct 2014 (Local Time) from EGFF Reporting Station
Broken Clouds Broken Clouds  
Wind Chill: 57°   Ceiling: 2200
Heat Index: 57°   Visibility: 6mi
Dew Point: 57°   Wind: 13mph
Humidity: 100%   Direction: 260°W
Pressure: 30"   Gusts: NA
Location:  51.58°N, 3.22°W
Report Text: EGFF 231550Z 26011KT 9999 FEW008 SCT012 BKN022 14/14 Q1016
Loading
Personal Weather Stations






























Interactive Weather Map
Tropical Storm Tracking
New forecast layout! Learn more

10-Day Weather Forecast

Advertisements
Track Severe Weather on mobile